CheckWX is a tool to help pilots better visualize weather data.  It is not intended as a substitute for an official pre-flight weather briefing.

08:35:15 UTC

KBYL METAR
Williamsburg-Whitley County Airport
Williamsburg, Kentucky, USA
Current

20 mins ago

KBYL 190815Z AUTO 13007KT 10SM CLR 19/17 A2998 RMK AO1
Observed
May-19 @ 08:15 UTC
Wind
  • 130° at 7 KTS
Visibility
10 SM
Flight Rules
VFR
Cloud Levels
  • Clear skies
Temperature
19°C / 66°F
Dewpoint
17°C / 63°F
Humidity
88%
Altimeter
29.98" Hg
Pressure
1015.22 hPa
Previous

40 mins ago

KBYL 190755Z AUTO 13005KT 10SM CLR 19/17 A2997 RMK AO1
Observed
May-19 @ 07:55 UTC
Wind
  • 130° at 5 KTS
Visibility
10 SM
Flight Rules
VFR
Cloud Levels
  • Clear skies
Temperature
19°C / 66°F
Dewpoint
17°C / 63°F
Humidity
88%
Altimeter
29.97" Hg
Pressure
1014.92 hPa
Previous

60 mins ago

KBYL 190735Z AUTO 14004KT 10SM CLR 19/17 A2997 RMK AO1
Observed
May-19 @ 07:35 UTC
Wind
  • 140° at 4 KTS
Visibility
10 SM
Flight Rules
VFR
Cloud Levels
  • Clear skies
Temperature
19°C / 66°F
Dewpoint
17°C / 63°F
Humidity
88%
Altimeter
29.97" Hg
Pressure
1014.92 hPa